Rensselaerville, NY

1:41 PM EDT on May 25, 2015 (GMT -0400)
Albany International | | Change Station
CLOSE
Current Station
Airport
Location: Albany,
Elevation: 292 ft
Nearby Weather Stations

Elev 292 ft 42.75 °N, 73.80 °W | Updated 50 minutes ago

Mostly Cloudy
Mostly Cloudy
76 °F
Feels Like 76 °F
N
12
Wind Variable Wind from South
Gusts 18 mph

Today
High -- | Low -- °F
--% Chance of Precip.
Yesterday
High -- | Low -- °F
Precip. -- in
5:26 AM 8:21 PM
Waxing Crescent, 50% visible
Pressure 30.17 in
Visibility 10.0 miles
Clouds Scattered Clouds 8500 ft
Mostly Cloudy 13000 ft
Mostly Cloudy 17000 ft
Dew Point 50 °F
Humidity 40%
Rainfall 0.00 in
Snow Depth Not available.
UV 6 out of 12
Pollen 8.50 out of 12
Air Quality Not available.
Flu Activity Widespread
METAR KALB 251651Z 17010G16KT 10SM SCT085 BKN130 BKN170 24/10 A3017 RMK AO2 SLP214 T02440100

More Conditions Fewer Conditions

Pressure 30.17 in
Visibility 10.0 miles
Clouds Scattered Clouds 8500 ft
Mostly Cloudy 13000 ft
Mostly Cloudy 17000 ft
Dew Point 50 °F
Humidity 40%
Rainfall 0.00 in
Snow Depth Not available.
UV 6 out of 12
Pollen 8.50 out of 12
Air Quality Not available.
Flu Activity Widespread
METAR KALB 251651Z 17010G16KT 10SM SCT085 BKN130 BKN170 24/10 A3017 RMK AO2 SLP214 T02440100

More Conditions Fewer Conditions

10-Day Weather Forecast

Almanac

Astronomy

May. 25, 2015 Rise Set
Actual Time
Civil Twilight
Nautical Twilight
Astronomical Twilight
Moon
Length of Visible Light
Length of Day
Tomorrow will be .
, % of the Moon is Illuminated

Today's Extremes

State Highs State Lows

Community

WunderPhotos

Upload Photos

1,824,071 photos uploaded!

WunderBlogs® & News

Nearby

Air Quality

  Air Quality AQ Index Pollutant
Not available.

Snow Depth

Station Depth Elevation

Earthquake Activity

City Distance Mag. Time & Date
Minimum magnitude displayed is 2.5.

Coastal Water Temperatures

Place Temperature

Stations

Nearby Weather Stations

Station Location Temp. Windchill Dew Point Humidity Wind Precip. Elev Updated Type